Thief River Falls, MN

12:54 PM CDT on July 31, 2015 (GMT -0500)
Northern Thief River Falls | | Change Station
CLOSE
Current Station
Personal Weather Station
Location: Thief River Falls, MN
Elevation: 1135 ft
Nearby Weather Stations

Elev 1135 ft 48.12 °N, 96.18 °W | Updated 0 second ago

Clear
Clear
77.2 °F
Feels Like 78 °F
N
1.1
Wind Variable Wind from ESE
Gusts 2.5 mph

Today
High -- | Low -- °F
--% Chance of Precip.
Yesterday
High -- | Low -- °F
Precip. -- in
5:58 AM 9:02 PM
Full, 100% visible
Pressure 30.04 in
Visibility 10.0 miles
Clouds Clear
Heat Index 78 °F
Dew Point 51 °F
Humidity 40%
Rainfall 0.00 in
Snow Depth Not available.
UV 5.0 out of 12
Pollen 8.10 out of 12
Air Quality Not available.
Flu Activity Not available.
METAR KTVF 311735Z AUTO 30014G20KT 10SM CLR 24/11 A3004 RMK AO1

More Conditions Fewer Conditions

Pressure 30.04 in
Visibility 10.0 miles
Clouds Clear
Heat Index 78 °F
Dew Point 51 °F
Humidity 40%
Rainfall 0.00 in
Snow Depth Not available.
UV 5.0 out of 12
Pollen 8.10 out of 12
Air Quality Not available.
Flu Activity Not available.
METAR KTVF 311735Z AUTO 30014G20KT 10SM CLR 24/11 A3004 RMK AO1

More Conditions Fewer Conditions

10-Day Weather Forecast

×

Almanac

Astronomy

Jul. 31, 2015 Rise Set
Actual Time
Civil Twilight
Nautical Twilight
Astronomical Twilight
Moon
Length of Visible Light
Length of Day
Tomorrow will be .
, % of the Moon is Illuminated

Today's Extremes

State Highs State Lows

Community

WunderPhotos

Upload Photos

1,842,703 photos uploaded!

WunderBlogs® & News

Nearby

Air Quality

  Air Quality AQ Index Pollutant
Not available.

Snow Depth

Station Depth Elevation

Earthquake Activity

City Distance Mag. Time & Date
Minimum magnitude displayed is 2.5.

Coastal Water Temperatures

Place Temperature

Stations

Nearby Weather Stations

Station Location Temp. Windchill Dew Point Humidity Wind Precip. Elev Updated Type